Time;durP1;ratioP1;P1;durP2;ratioP2;P2;SDS_P1;SDS_P2;PMS_P1;PMS_P2;Temp;Humidity;BMP_temperature;BMP_pressure;BME280_temperature;BME280_humidity;BME280_pressure;Samples;Min_cycle;Max_cycle;Signal;HPM_P1;HPM_P2
2022/07/03 00:02:20;;;;;;;5.30;5.00;;;;;;;27.59;54.95;99835.41;4995723;28;20195;-66
2022/07/03 00:04:47;;;;;;;4.97;4.73;;;;;;;27.67;54.71;99831.19;4995672;28;20199;-67
2022/07/03 00:07:15;;;;;;;4.83;4.57;;;;;;;27.73;53.78;99824.53;4995021;28;20241;-66
2022/07/03 00:09:42;;;;;;;5.23;4.90;;;;;;;27.68;53.31;99827.38;4995239;28;20222;-67
2022/07/03 00:12:09;;;;;;;5.83;4.90;;;;;;;27.67;53.68;99823.00;4994988;28;20195;-66
2022/07/03 00:14:36;;;;;;;5.77;4.87;;;;;;;27.64;53.33;99821.69;4995108;28;20569;-67
2022/07/03 00:17:03;;;;;;;4.37;4.07;;;;;;;27.55;54.40;99812.56;4994715;28;20666;-67
2022/07/03 00:19:30;;;;;;;5.30;4.90;;;;;;;27.66;53.93;99813.19;4995110;28;20206;-67
2022/07/03 00:21:58;;;;;;;5.87;5.53;;;;;;;27.67;54.13;99814.81;4995142;28;20198;-67
2022/07/03 00:24:31;;;;;;;6.07;5.50;;;;;;;27.78;53.11;99810.78;4995320;28;20191;-67
2022/07/03 00:26:59;;;;;;;5.20;4.73;;;;;;;27.75;54.11;99816.84;4995275;28;20250;-67
2022/07/03 00:29:37;;;;;;;8.17;5.30;;;;;;;27.73;54.13;99808.16;4995387;28;20206;-67
2022/07/03 00:32:05;;;;;;;4.93;4.63;;;;;;;27.83;53.90;99813.44;4994675;28;20191;-67
2022/07/03 00:34:32;;;;;;;6.17;5.30;;;;;;;27.82;53.82;99812.66;4994535;28;20194;-67
2022/07/03 00:37:01;;;;;;;5.27;4.97;;;;;;;27.91;53.38;99802.66;4994801;28;20194;-67
2022/07/03 00:39:30;;;;;;;5.60;5.30;;;;;;;27.87;53.62;99795.34;4994712;28;20195;-67
2022/07/03 00:42:02;;;;;;;7.40;5.50;;;;;;;27.71;54.42;99799.44;4994674;28;20245;-67
2022/07/03 00:44:30;;;;;;;5.60;5.20;;;;;;;27.57;55.46;99793.16;4994361;28;20290;-67
2022/07/03 00:46:57;;;;;;;5.10;4.80;;;;;;;27.61;55.33;99802.38;4994596;28;20191;-67
2022/07/03 00:49:25;;;;;;;5.50;5.00;;;;;;;27.49;56.32;99793.84;4994225;28;20658;-66
2022/07/03 00:51:53;;;;;;;6.30;5.07;;;;;;;27.69;55.69;99790.75;4994803;28;20257;-67
2022/07/03 00:54:22;;;;;;;6.07;5.77;;;;;;;27.39;58.25;99786.63;4994520;28;20245;-67
2022/07/03 00:56:55;;;;;;;6.53;6.03;;;;;;;27.09;59.30;99786.28;4994548;28;20199;-67
2022/07/03 00:59:22;;;;;;;6.77;5.97;;;;;;;26.98;59.99;99782.91;4994975;28;20186;-67
2022/07/03 01:01:55;;;;;;;7.17;6.67;;;;;;;26.94;60.22;99783.78;4994058;28;20630;-67
2022/07/03 01:04:41;;;;;;;6.83;6.23;;;;;;;26.90;60.76;99778.09;4994478;28;20635;-67
2022/07/03 01:07:19;;;;;;;6.20;5.90;;;;;;;26.85;61.54;99770.00;4994513;28;20186;-67
2022/07/03 01:09:56;;;;;;;6.27;5.87;;;;;;;26.82;61.26;99781.50;4994237;28;20203;-67
2022/07/03 01:12:34;;;;;;;6.00;5.67;;;;;;;26.79;61.44;99775.84;4994952;28;20293;-68
2022/07/03 01:15:09;;;;;;;7.10;6.50;;;;;;;26.82;61.70;99777.97;4994522;28;20289;-66
2022/07/03 01:17:40;;;;;;;7.90;6.30;;;;;;;26.74;62.05;99778.63;4994060;28;20616;-66
2022/07/03 01:20:07;;;;;;;6.80;6.20;;;;;;;26.61;62.35;99763.81;4994029;28;20245;-66
2022/07/03 01:22:37;;;;;;;6.70;6.13;;;;;;;26.50;64.28;99777.84;4993963;28;20198;-66
2022/07/03 01:25:17;;;;;;;7.17;6.57;;;;;;;26.55;62.60;99775.06;4994393;28;20186;-67
2022/07/03 01:27:56;;;;;;;7.03;6.53;;;;;;;26.46;63.10;99774.09;4993598;28;20733;-67
2022/07/03 01:30:24;;;;;;;6.30;6.00;;;;;;;26.24;64.67;99773.81;4993864;28;20207;-67
2022/07/03 01:32:58;;;;;;;6.60;6.20;;;;;;;26.35;63.46;99778.03;4992277;28;20193;-67
2022/07/03 01:35:29;;;;;;;6.50;6.00;;;;;;;26.41;63.93;99768.72;4994018;28;20186;-67
2022/07/03 01:37:56;;;;;;;6.43;6.13;;;;;;;26.58;63.28;99769.84;4994014;28;20187;-67
2022/07/03 01:40:25;;;;;;;5.50;5.30;;;;;;;26.68;63.08;99771.63;4993633;28;20199;-67
2022/07/03 01:42:55;;;;;;;5.47;5.17;;;;;;;26.85;62.67;99780.09;4994079;28;20195;-67
2022/07/03 01:45:25;;;;;;;6.10;5.70;;;;;;;26.96;62.07;99771.50;4993276;28;20651;-67
2022/07/03 01:47:53;;;;;;;6.03;5.73;;;;;;;27.11;61.48;99778.63;4993425;28;20198;-67
2022/07/03 01:50:22;;;;;;;6.50;6.10;;;;;;;27.18;60.89;99774.41;4992630;28;20703;-66
2022/07/03 01:52:49;;;;;;;6.10;5.80;;;;;;;27.25;60.88;99779.50;4993122;28;20742;-67
2022/07/03 01:55:17;;;;;;;7.10;5.50;;;;;;;27.32;60.18;99779.94;4993304;28;20297;-67
2022/07/03 01:57:46;;;;;;;6.80;6.20;;;;;;;27.34;60.20;99777.72;4993421;28;20199;-67
2022/07/03 02:00:17;;;;;;;6.40;5.90;;;;;;;27.40;59.99;99777.31;4993126;28;20205;-67
2022/07/03 02:02:53;;;;;;;6.37;5.87;;;;;;;27.43;59.98;99770.44;4993371;28;20221;-68
2022/07/03 02:05:30;;;;;;;6.07;5.70;;;;;;;27.47;59.73;99771.47;4993805;28;20191;-67
2022/07/03 02:08:04;;;;;;;6.90;6.43;;;;;;;27.41;60.08;99768.06;4992926;28;20187;-66
2022/07/03 02:10:35;;;;;;;6.50;6.17;;;;;;;27.39;59.94;99770.25;4993419;28;20360;-65
2022/07/03 02:13:08;;;;;;;6.57;6.17;;;;;;;27.31;60.37;99778.31;4992560;28;20248;-67
2022/07/03 02:15:36;;;;;;;7.00;6.60;;;;;;;27.30;60.11;99776.69;4993308;28;20230;-65
2022/07/03 02:18:11;;;;;;;6.40;6.00;;;;;;;27.32;59.77;99779.94;4992923;28;20582;-68
2022/07/03 02:20:42;;;;;;;7.03;6.43;;;;;;;27.23;60.81;99781.72;4992904;28;20249;-65
2022/07/03 02:23:09;;;;;;;7.17;6.47;;;;;;;27.23;60.29;99782.53;4993049;28;20612;-66
2022/07/03 02:25:38;;;;;;;6.87;6.47;;;;;;;27.22;60.90;99785.53;4992918;28;20202;-66
2022/07/03 02:28:06;;;;;;;7.07;6.47;;;;;;;27.23;60.72;99785.25;4992900;28;20195;-66
2022/07/03 02:30:40;;;;;;;6.87;6.27;;;;;;;27.11;61.09;99784.06;4992374;28;20222;-66
2022/07/03 02:33:09;;;;;;;6.70;6.27;;;;;;;27.06;61.07;99786.84;4993735;28;20190;-65
2022/07/03 02:35:36;;;;;;;7.50;6.90;;;;;;;27.09;60.45;99789.81;4992871;28;20202;-65
2022/07/03 02:38:07;;;;;;;6.40;5.97;;;;;;;27.08;61.06;99784.66;4992588;28;20338;-66
2022/07/03 02:40:40;;;;;;;7.90;7.13;;;;;;;27.05;60.99;99780.63;4993359;28;20190;-66
2022/07/03 02:43:19;;;;;;;7.23;6.50;;;;;;;27.05;61.17;99783.34;4993343;28;20242;-65
2022/07/03 02:45:55;;;;;;;7.63;7.00;;;;;;;27.01;60.94;99789.66;4992831;28;20186;-66
2022/07/03 02:48:30;;;;;;;7.23;6.53;;;;;;;26.90;62.09;99788.22;4992514;28;20285;-66
2022/07/03 02:51:03;;;;;;;7.53;7.13;;;;;;;26.66;63.01;99791.00;4992780;28;20621;-66
2022/07/03 02:53:36;;;;;;;7.40;6.80;;;;;;;26.78;62.12;99785.13;4993507;28;20186;-65
2022/07/03 02:56:08;;;;;;;8.00;7.10;;;;;;;26.75;62.56;99791.16;4992949;28;20190;-65
2022/07/03 02:59:05;;;;;;;8.50;7.70;;;;;;;26.74;62.50;99787.63;4993258;28;20194;-65
2022/07/03 03:01:42;;;;;;;9.53;8.00;;;;;;;26.60;63.15;99770.38;4993301;28;20191;-65
2022/07/03 03:04:15;;;;;;;8.50;7.57;;;;;;;26.67;62.34;99783.63;4996047;28;20721;-68
2022/07/03 03:06:48;;;;;;;7.73;7.23;;;;;;;26.72;62.64;99780.84;4996190;28;20187;-67
2022/07/03 03:09:21;;;;;;;8.87;8.07;;;;;;;26.67;62.64;99783.63;4996008;28;20183;-66
2022/07/03 03:11:49;;;;;;;8.23;7.47;;;;;;;26.66;62.52;99782.81;4996312;28;20238;-66
2022/07/03 03:14:21;;;;;;;9.23;8.23;;;;;;;26.62;63.06;99786.44;4996029;28;20640;-66
2022/07/03 03:16:52;;;;;;;8.47;7.73;;;;;;;26.64;62.00;99789.66;4996568;28;20245;-66
2022/07/03 03:19:22;;;;;;;8.03;7.43;;;;;;;26.55;62.58;99784.03;4996750;28;20593;-65
2022/07/03 03:21:58;;;;;;;7.53;7.03;;;;;;;26.40;63.25;99772.53;4995823;28;20759;-65
2022/07/03 03:24:26;;;;;;;9.07;7.67;;;;;;;26.30;62.88;99778.09;4996345;28;20274;-66
2022/07/03 03:26:53;;;;;;;8.70;7.60;;;;;;;26.18;64.40;99774.97;4995437;28;20199;-66
2022/07/03 03:29:20;;;;;;;7.33;6.60;;;;;;;26.05;65.57;99776.47;4995473;28;20191;-66
2022/07/03 03:31:48;;;;;;;7.50;7.03;;;;;;;26.14;63.66;99790.28;4995706;28;20230;-66
2022/07/03 03:34:16;;;;;;;8.33;7.70;;;;;;;26.30;63.41;99789.00;4995604;28;20250;-66
2022/07/03 03:36:43;;;;;;;7.97;7.37;;;;;;;26.26;64.11;99777.06;4995447;28;20659;-66
2022/07/03 03:39:10;;;;;;;7.27;6.87;;;;;;;26.34;62.83;99779.16;4995298;28;20194;-65
2022/07/03 03:41:37;;;;;;;8.20;7.40;;;;;;;26.41;62.55;99783.13;4995323;28;20198;-65
2022/07/03 03:44:04;;;;;;;6.73;6.20;;;;;;;26.72;61.46;99784.38;4995813;28;20194;-65
2022/07/03 03:46:31;;;;;;;7.50;6.43;;;;;;;26.88;60.89;99785.78;4995451;28;20659;-65
2022/07/03 03:48:59;;;;;;;7.30;6.83;;;;;;;26.91;60.90;99790.63;4995389;28;20682;-65
2022/07/03 03:51:26;;;;;;;8.63;7.90;;;;;;;26.78;61.89;99780.47;4995295;28;20698;-66
2022/07/03 03:53:52;;;;;;;8.60;7.83;;;;;;;26.82;60.60;99786.16;4995642;28;20195;-65
2022/07/03 03:56:19;;;;;;;8.73;7.87;;;;;;;26.70;62.04;99789.31;4995287;28;20662;-65
2022/07/03 03:58:46;;;;;;;10.93;8.30;;;;;;;26.85;61.22;99788.28;4995750;28;20257;-66
2022/07/03 04:01:13;;;;;;;8.43;7.60;;;;;;;26.94;60.97;99786.50;4995172;28;20261;-66
2022/07/03 04:03:40;;;;;;;7.83;7.13;;;;;;;27.13;60.17;99793.59;4994924;28;20249;-66
2022/07/03 04:06:09;;;;;;;6.73;6.23;;;;;;;27.51;59.17;99786.97;4995420;28;20194;-66
2022/07/03 04:08:36;;;;;;;7.90;7.27;;;;;;;28.09;57.43;99784.56;4994825;28;20198;-66
2022/07/03 04:11:03;;;;;;;7.37;6.87;;;;;;;28.77;55.07;99796.25;4994878;28;20699;-66
2022/07/03 04:13:29;;;;;;;6.33;5.97;;;;;;;29.52;53.31;99793.66;4994375;28;20262;-66
2022/07/03 04:15:56;;;;;;;6.70;6.20;;;;;;;30.09;50.69;99796.22;4994751;28;20777;-66
2022/07/03 04:18:24;;;;;;;7.27;6.60;;;;;;;30.61;49.14;99808.19;4994726;28;20202;-65
2022/07/03 04:20:50;;;;;;;6.47;6.10;;;;;;;31.09;47.86;99811.66;4994786;28;20199;-66
2022/07/03 04:23:19;;;;;;;6.70;6.20;;;;;;;31.52;46.56;99813.28;4994938;28;20235;-66
2022/07/03 04:25:45;;;;;;;6.70;6.30;;;;;;;31.90;45.47;99811.47;4995086;28;20208;-65
2022/07/03 04:28:12;;;;;;;9.37;6.53;;;;;;;32.29;43.99;99810.34;4994915;28;20194;-66
2022/07/03 04:30:39;;;;;;;7.10;6.50;;;;;;;32.61;43.24;99806.91;4994795;28;20198;-66
2022/07/03 04:33:06;;;;;;;6.70;6.10;;;;;;;33.28;41.62;99816.63;4995010;28;20613;-66
2022/07/03 04:35:33;;;;;;;6.07;5.67;;;;;;;33.25;41.15;99817.34;4995274;28;20194;-66
2022/07/03 04:38:00;;;;;;;6.17;5.67;;;;;;;33.64;40.58;99820.72;4994040;28;20625;-65
2022/07/03 04:40:28;;;;;;;10.17;6.17;;;;;;;33.50;40.56;99823.75;4994484;28;20198;-65
2022/07/03 04:42:55;;;;;;;5.87;5.57;;;;;;;33.50;39.99;99823.75;4994473;28;20203;-65
2022/07/03 04:45:22;;;;;;;6.33;5.83;;;;;;;33.71;39.41;99823.72;4993981;28;20273;-65
2022/07/03 04:47:48;;;;;;;5.60;5.20;;;;;;;33.75;40.05;99824.63;4994236;28;20198;-65
2022/07/03 04:50:15;;;;;;;6.27;5.87;;;;;;;33.60;40.10;99814.28;4994125;28;20199;-65
2022/07/03 04:52:42;;;;;;;6.33;5.17;;;;;;;32.99;41.65;99821.44;4993884;28;20300;-65
2022/07/03 04:55:09;;;;;;;5.87;5.47;;;;;;;33.51;40.26;99817.09;4993679;28;20202;-66
2022/07/03 04:57:38;;;;;;;6.00;5.37;;;;;;;33.81;39.54;99815.03;4993723;28;20619;-66
2022/07/03 05:00:06;;;;;;;6.10;5.50;;;;;;;34.07;39.29;99816.34;4993915;28;20201;-66
2022/07/03 05:02:33;;;;;;;5.95;5.47;;;;;;;34.19;38.57;99823.84;4993424;28;20274;-66
2022/07/03 05:05:00;;;;;;;6.22;5.80;;;;;;;34.39;38.35;99817.44;4993682;28;20199;-67
2022/07/03 05:07:27;;;;;;;7.43;5.47;;;;;;;34.58;37.56;99817.66;4993901;28;20190;-66
2022/07/03 05:09:53;;;;;;;6.38;5.75;;;;;;;35.00;37.72;99824.50;4993487;28;20663;-67
2022/07/03 05:12:20;;;;;;;6.53;5.38;;;;;;;35.05;37.05;99819.56;4993293;28;20222;-67
2022/07/03 05:14:48;;;;;;;6.32;5.50;;;;;;;35.30;36.84;99814.78;4993705;28;20230;-67
2022/07/03 05:17:17;;;;;;;6.05;5.40;;;;;;;35.50;35.95;99816.53;4994049;28;20269;-67
2022/07/03 05:19:44;;;;;;;6.45;5.10;;;;;;;35.36;36.05;99818.91;4994107;28;20194;-66
2022/07/03 05:22:11;;;;;;;5.82;5.43;;;;;;;35.91;35.74;99824.41;4993126;28;20198;-67
2022/07/03 05:24:38;;;;;;;7.07;5.97;;;;;;;35.81;35.68;99827.69;4992747;28;20330;-67
2022/07/03 05:27:05;;;;;;;5.22;4.43;;;;;;;35.79;35.48;99822.50;4993316;28;20194;-66
2022/07/03 05:29:32;;;;;;;4.75;4.35;;;;;;;35.69;36.24;99816.66;4993619;28;20194;-68
2022/07/03 05:32:00;;;;;;;5.53;5.22;;;;;;;35.75;35.97;99815.28;4992867;28;20222;-67
2022/07/03 05:34:26;;;;;;;5.10;4.65;;;;;;;36.01;35.62;99823.88;4980550;28;20199;-72
2022/07/03 05:36:53;;;;;;;6.35;5.88;;;;;;;36.24;35.48;99822.13;4984937;28;20191;-68
2022/07/03 05:39:37;;;;;;;4.97;4.78;;;;;;;36.23;35.03;99828.81;4991265;28;20261;-68
2022/07/03 05:42:04;;;;;;;5.60;5.20;;;;;;;36.14;33.86;99819.88;4992756;28;20203;-67
2022/07/03 05:44:31;;;;;;;5.80;5.30;;;;;;;36.00;35.05;99830.56;4994360;28;20199;-67
2022/07/03 05:46:59;;;;;;;5.10;4.60;;;;;;;35.92;34.74;99823.22;4993504;28;20253;-67
2022/07/03 05:49:26;;;;;;;10.25;6.00;;;;;;;35.92;34.76;99823.22;4993139;28;20191;-68
2022/07/03 05:51:53;;;;;;;5.30;4.95;;;;;;;35.75;35.49;99818.03;4993097;28;20222;-68
2022/07/03 05:54:20;;;;;;;6.03;5.63;;;;;;;35.86;34.55;99827.44;4993339;28;20205;-68
2022/07/03 05:56:47;;;;;;;6.25;5.93;;;;;;;35.65;35.07;99822.13;4991207;28;20226;-69
2022/07/03 05:59:13;;;;;;;6.43;5.85;;;;;;;35.70;35.15;99815.50;4983066;28;20213;-69
2022/07/03 06:01:40;;;;;;;6.43;5.75;;;;;;;35.60;34.84;99824.34;4972905;28;20206;-68
2022/07/03 06:04:08;;;;;;;6.75;6.13;;;;;;;35.78;34.83;99809.03;4973375;28;20266;-66
2022/07/03 06:06:35;;;;;;;6.45;6.15;;;;;;;35.51;35.52;99810.66;4971855;28;20685;-71
2022/07/03 06:09:02;;;;;;;6.80;6.20;;;;;;;35.70;34.43;99812.75;4970179;28;20208;-71
2022/07/03 06:11:28;;;;;;;6.55;5.97;;;;;;;35.18;34.68;99820.31;4968418;28;20658;-68
2022/07/03 06:13:55;;;;;;;6.05;5.75;;;;;;;34.88;35.43;99813.50;4973173;28;20223;-66
2022/07/03 06:16:22;;;;;;;6.80;6.30;;;;;;;34.82;36.06;99809.38;4977751;28;20633;-67
2022/07/03 06:18:49;;;;;;;7.85;5.88;;;;;;;34.88;35.26;99814.31;4965771;28;20634;-68
2022/07/03 06:21:17;;;;;;;6.35;5.90;;;;;;;34.80;36.05;99811.66;4983344;28;20221;-67
2022/07/03 06:23:44;;;;;;;6.25;5.85;;;;;;;34.83;35.89;99805.47;4982503;28;20203;-64
2022/07/03 06:26:11;;;;;;;6.57;5.95;;;;;;;35.00;35.49;99805.19;4968721;28;20639;-67
2022/07/03 06:28:37;;;;;;;6.38;5.93;;;;;;;35.27;35.01;99807.19;4969331;28;20203;-69
2022/07/03 06:31:04;;;;;;;6.13;5.82;;;;;;;35.27;35.30;99809.94;4988378;28;20943;-70
2022/07/03 06:33:31;;;;;;;7.35;6.95;;;;;;;35.35;34.74;99806.25;4988519;28;20226;-66
2022/07/03 06:35:58;;;;;;;7.05;6.65;;;;;;;35.13;34.96;99804.81;4972405;28;20687;-65
2022/07/03 06:38:26;;;;;;;6.57;6.07;;;;;;;34.93;35.23;99810.50;4969074;28;20195;-67
2022/07/03 06:40:53;;;;;;;6.93;6.45;;;;;;;34.88;35.60;99808.78;4972621;28;20222;-65
2022/07/03 06:43:20;;;;;;;6.20;5.80;;;;;;;35.16;34.79;99801.34;4974186;28;20257;-67
2022/07/03 06:45:46;;;;;;;7.20;6.53;;;;;;;35.16;35.01;99803.28;4970397;28;20253;-76
2022/07/03 06:48:13;;;;;;;6.47;6.18;;;;;;;35.15;35.41;99790.66;4971108;28;20663;-75
2022/07/03 06:50:40;;;;;;;7.10;6.35;;;;;;;34.83;35.88;99800.72;4971536;28;20375;-71
2022/07/03 06:53:07;;;;;;;7.38;6.80;;;;;;;34.77;35.96;99796.56;4972796;28;20702;-70
2022/07/03 06:55:35;;;;;;;6.53;6.03;;;;;;;34.83;36.02;99797.19;4972066;28;20258;-68
2022/07/03 06:58:02;;;;;;;6.75;6.22;;;;;;;34.80;35.48;99789.59;4970589;28;20195;-69
2022/07/03 07:00:29;;;;;;;7.15;6.53;;;;;;;34.79;35.46;99790.72;4987442;28;20253;-69
2022/07/03 07:02:55;;;;;;;6.45;6.15;;;;;;;34.83;35.65;99788.91;4992084;28;20613;-69
2022/07/03 07:05:22;;;;;;;6.00;5.70;;;;;;;34.68;36.09;99775.78;4992452;28;20202;-69
2022/07/03 07:07:49;;;;;;;8.85;6.40;;;;;;;34.79;36.44;99776.91;4992124;28;20260;-68
2022/07/03 07:10:16;;;;;;;5.82;5.40;;;;;;;34.76;36.27;99770.13;4989807;28;20195;-68
2022/07/03 07:12:44;;;;;;;6.50;6.00;;;;;;;34.85;36.14;99776.34;4988840;28;20627;-69
2022/07/03 07:15:11;;;;;;;6.68;6.07;;;;;;;34.92;35.78;99776.56;4991214;28;20793;-69
2022/07/03 07:17:38;;;;;;;6.90;6.40;;;;;;;34.84;36.35;99777.50;4992419;28;20278;-70
2022/07/03 07:20:06;;;;;;;6.57;6.03;;;;;;;34.41;36.75;99771.78;4991885;28;20614;-70
2022/07/03 07:22:33;;;;;;;10.38;6.32;;;;;;;34.36;37.29;99769.28;4991835;28;20206;-70
2022/07/03 07:24:59;;;;;;;8.25;6.50;;;;;;;34.72;36.75;99776.69;4992762;28;20191;-79
2022/07/03 07:27:26;;;;;;;7.18;6.57;;;;;;;34.96;35.88;99773.91;4992208;28;20218;-77
2022/07/03 07:29:54;;;;;;;6.40;6.00;;;;;;;35.34;35.93;99777.00;4985284;28;20273;-76
2022/07/03 07:32:21;;;;;;;7.53;6.20;;;;;;;35.29;35.55;99763.44;4990955;28;20222;-73
2022/07/03 07:34:48;;;;;;;6.10;5.50;;;;;;;35.52;35.03;99778.28;4981226;28;20261;-73
2022/07/03 07:37:14;;;;;;;11.18;5.80;;;;;;;35.76;34.23;99778.19;4992117;28;20195;-75
2022/07/03 07:39:41;;;;;;;8.85;6.07;;;;;;;35.97;34.01;99764.91;4972891;28;20229;-73
2022/07/03 07:42:08;;;;;;;5.78;5.47;;;;;;;36.15;33.57;99777.19;4972327;28;20258;-72
2022/07/03 07:44:35;;;;;;;6.25;5.70;;;;;;;35.50;34.48;99769.53;4972224;28;20635;-72
2022/07/03 07:47:03;;;;;;;6.53;6.03;;;;;;;35.88;34.42;99773.34;4981575;28;20206;-75
2022/07/03 07:49:30;;;;;;;6.55;5.88;;;;;;;35.67;34.06;99770.03;4995391;28;20199;-76
2022/07/03 07:51:57;;;;;;;5.90;5.60;;;;;;;35.53;34.43;99774.38;4994504;28;20226;-76
2022/07/03 07:54:24;;;;;;;6.88;5.43;;;;;;;35.88;34.62;99765.06;4995532;28;20545;-75
2022/07/03 07:56:50;;;;;;;5.63;5.10;;;;;;;35.97;33.08;99767.66;4995542;28;20245;-75
2022/07/03 07:59:17;;;;;;;5.80;5.30;;;;;;;36.11;33.14;99768.81;4995076;28;20197;-74
2022/07/03 08:07:13;;;;;;;5.18;4.85;;;;;;;35.92;32.89;99765.13;4975547;28;20229;-74
2022/07/03 08:09:40;;;;;;;5.45;5.15;;;;;;;36.10;32.96;99764.41;4980249;28;20202;-74
2022/07/03 08:12:09;;;;;;;5.28;4.90;;;;;;;36.18;32.49;99768.19;4991613;28;20288;-76
2022/07/03 08:14:36;;;;;;;5.07;4.80;;;;;;;35.64;32.51;99764.41;4973034;28;20289;-76
2022/07/03 08:17:02;;;;;;;5.75;5.43;;;;;;;35.74;33.01;99764.69;4973264;28;20257;-77
2022/07/03 08:19:31;;;;;;;7.47;4.78;;;;;;;36.13;32.13;99765.69;4973557;28;20210;-78
2022/07/03 08:21:57;;;;;;;6.93;6.18;;;;;;;36.49;31.53;99768.16;4972452;28;20258;-78
2022/07/03 08:24:24;;;;;;;6.38;5.80;;;;;;;36.80;31.14;99765.34;4973649;28;20202;-76
2022/07/03 08:26:51;;;;;;;5.70;4.90;;;;;;;36.32;32.24;99761.06;4972895;28;20206;-76
2022/07/03 08:29:18;;;;;;;4.68;4.40;;;;;;;36.42;31.44;99768.78;4971075;28;20199;-76
2022/07/03 08:31:44;;;;;;;5.68;5.30;;;;;;;36.57;32.18;99775.44;4972413;28;20726;-75
2022/07/03 08:34:13;;;;;;;5.95;4.85;;;;;;;36.54;32.92;99768.66;4970393;28;20203;-78
2022/07/03 08:36:42;;;;;;;7.50;5.10;;;;;;;36.34;32.62;99774.53;4970830;28;20279;-78
2022/07/03 08:39:10;;;;;;;5.25;4.80;;;;;;;36.52;32.07;99772.97;4986087;28;20693;-74
2022/07/03 08:41:38;;;;;;;5.10;4.55;;;;;;;36.68;31.59;99773.75;4991873;28;20226;-78
2022/07/03 08:44:06;;;;;;;4.80;4.50;;;;;;;36.68;30.91;99765.47;4988841;28;20202;-77
2022/07/03 08:46:33;;;;;;;5.85;4.22;;;;;;;36.89;30.93;99772.28;4992550;28;20226;-76
2022/07/03 08:49:01;;;;;;;4.60;4.40;;;;;;;36.89;30.20;99771.44;4991205;28;20194;-76
2022/07/03 08:51:28;;;;;;;4.28;3.97;;;;;;;36.91;29.88;99769.13;4991830;28;20746;-75
2022/07/03 08:53:56;;;;;;;4.70;4.30;;;;;;;36.81;29.75;99762.19;4992407;28;20227;-76
2022/07/03 08:56:24;;;;;;;4.93;4.50;;;;;;;37.05;28.99;99763.88;4991188;28;20203;-76
2022/07/03 08:58:50;;;;;;;4.65;4.45;;;;;;;36.77;29.93;99758.56;4989937;28;20201;-76
2022/07/03 09:01:19;;;;;;;5.13;4.35;;;;;;;36.68;30.06;99759.91;4989171;28;20664;-76
2022/07/03 09:03:47;;;;;;;4.35;4.05;;;;;;;37.07;28.68;99758.78;4987317;28;20210;-76
2022/07/03 09:06:14;;;;;;;3.85;3.55;;;;;;;37.07;26.83;99758.78;4973604;28;20222;-77
2022/07/03 09:08:41;;;;;;;4.00;3.65;;;;;;;37.13;27.26;99754.53;4972154;28;20203;-76
2022/07/03 09:11:11;;;;;;;7.20;3.97;;;;;;;37.08;27.51;99746.53;4972458;28;20231;-78
2022/07/03 09:13:38;;;;;;;3.70;3.50;;;;;;;37.01;27.27;99757.47;4981625;28;20218;-78
2022/07/03 09:16:05;;;;;;;5.82;3.90;;;;;;;36.85;27.00;99759.50;4991386;28;20226;-76
2022/07/03 09:18:40;;;;;;;5.30;3.72;;;;;;;36.80;27.07;99757.03;4978845;28;20214;-72
2022/07/03 09:21:08;;;;;;;5.35;3.92;;;;;;;37.01;27.45;99769.34;4974470;28;20199;-73
2022/07/03 09:23:40;;;;;;;5.68;4.13;;;;;;;36.89;27.45;99765.91;4974346;28;20234;-73
2022/07/03 09:26:13;;;;;;;4.22;3.97;;;;;;;37.07;27.41;99751.25;4974327;28;20257;-69
2022/07/03 09:28:46;;;;;;;5.43;4.25;;;;;;;36.46;28.26;99752.28;4975239;28;20283;-68
2022/07/03 09:31:15;;;;;;;3.90;3.70;;;;;;;36.58;27.24;99730.78;4974393;28;20198;-67
2022/07/03 09:33:56;;;;;;;4.30;3.55;;;;;;;36.57;28.06;99747.75;4974181;28;20234;-73
2022/07/03 09:36:24;;;;;;;8.77;4.07;;;;;;;36.90;27.62;99748.94;4973805;28;20198;-72
2022/07/03 09:38:51;;;;;;;5.20;3.72;;;;;;;36.64;26.67;99742.38;4986510;28;20203;-73
2022/07/03 09:41:19;;;;;;;4.78;3.33;;;;;;;36.98;26.13;99752.66;4993456;28;20194;-72
2022/07/03 09:43:45;;;;;;;3.45;3.25;;;;;;;36.87;26.36;99738.56;4993268;28;20199;-73
2022/07/03 09:46:12;;;;;;;4.38;3.83;;;;;;;36.90;26.32;99746.16;4993891;28;20202;-73
2022/07/03 09:48:41;;;;;;;4.00;3.72;;;;;;;36.99;26.15;99737.66;4994015;28;20206;-73
2022/07/03 09:51:16;;;;;;;5.30;3.70;;;;;;;37.09;26.10;99732.31;4993801;28;20286;-73
2022/07/03 09:53:52;;;;;;;3.92;3.67;;;;;;;37.15;25.46;99730.88;4992098;28;20210;-72
2022/07/03 09:56:22;;;;;;;3.90;3.50;;;;;;;37.35;26.05;99739.94;4992888;28;20630;-73
2022/07/03 09:59:09;;;;;;;4.30;3.80;;;;;;;37.56;24.92;99729.28;4993165;28;20207;-75
2022/07/03 10:01:37;;;;;;;4.10;3.42;;;;;;;37.29;25.88;99727.56;4993530;28;20199;-67
2022/07/03 10:04:16;;;;;;;3.90;3.60;;;;;;;36.52;26.39;99717.59;4990116;28;20203;-67
2022/07/03 10:06:53;;;;;;;3.95;3.65;;;;;;;35.74;28.04;99711.31;4989991;28;20634;-66
2022/07/03 10:09:21;;;;;;;5.03;3.70;;;;;;;35.66;28.04;99706.78;4992937;28;20635;-67
2022/07/03 10:11:50;;;;;;;4.20;3.67;;;;;;;35.51;28.46;99722.19;4992561;28;20202;-68
2022/07/03 10:14:19;;;;;;;6.95;3.53;;;;;;;35.56;28.30;99710.09;4993015;28;20249;-66
2022/07/03 10:16:46;;;;;;;4.38;3.55;;;;;;;35.76;28.04;99711.81;4992660;28;20671;-67
2022/07/03 10:19:16;;;;;;;4.90;3.58;;;;;;;35.78;28.54;99712.25;4993765;28;20249;-67
2022/07/03 10:21:44;;;;;;;4.03;3.72;;;;;;;35.97;28.03;99715.91;4992602;28;20203;-67
2022/07/03 10:24:13;;;;;;;3.83;3.50;;;;;;;35.38;29.49;99700.50;4992368;28;20194;-66
2022/07/03 10:26:41;;;;;;;3.45;2.95;;;;;;;35.63;27.92;99701.97;4992406;28;20205;-67
2022/07/03 10:29:15;;;;;;;4.43;3.83;;;;;;;35.62;28.92;99703.13;4992599;28;20281;-67
2022/07/03 10:31:45;;;;;;;3.72;3.53;;;;;;;35.96;28.12;99694.13;4993160;28;20660;-67
2022/07/03 10:34:12;;;;;;;4.63;3.60;;;;;;;36.18;27.79;99691.50;4992714;28;20310;-69
2022/07/03 10:36:40;;;;;;;20.48;5.15;;;;;;;36.36;28.01;99698.28;4992896;28;20289;-67
2022/07/03 10:39:07;;;;;;;4.18;3.30;;;;;;;36.23;28.31;99698.75;4976635;28;20195;-66
2022/07/03 10:47:51;;;;;;;7.30;3.88;;;;;;;36.25;27.30;99690.91;4972114;28;20250;-71
2022/07/03 10:50:20;;;;;;;4.18;3.83;;;;;;;36.28;27.31;99692.94;4958444;28;20249;-73
2022/07/03 10:52:47;;;;;;;4.35;3.95;;;;;;;36.26;27.38;99692.50;4972860;28;20195;-72
2022/07/03 10:55:16;;;;;;;4.47;4.00;;;;;;;36.10;28.31;99683.41;4972889;28;20192;-73
2022/07/03 10:57:44;;;;;;;4.35;4.13;;;;;;;36.37;27.52;99690.75;4972911;28;20195;-72
2022/07/03 11:00:20;;;;;;;4.15;3.85;;;;;;;36.33;28.26;99676.03;4973560;28;20627;-72
2022/07/03 11:02:51;;;;;;;4.57;4.18;;;;;;;36.51;28.44;99666.16;4972978;28;20183;-72
2022/07/03 11:05:26;;;;;;;4.32;3.92;;;;;;;36.55;28.46;99665.06;4972888;28;20218;-72
2022/07/03 11:08:15;;;;;;;4.47;4.07;;;;;;;36.62;28.16;99667.19;4973683;28;20203;-74
2022/07/03 11:10:44;;;;;;;5.38;4.18;;;;;;;36.54;28.50;99666.22;4973746;28;20188;-73
2022/07/03 11:13:20;;;;;;;6.78;4.53;;;;;;;36.39;29.10;99671.84;4973062;28;20607;-73
2022/07/03 11:15:51;;;;;;;4.18;3.97;;;;;;;36.01;29.52;99652.38;4973721;28;20714;-75
2022/07/03 11:18:27;;;;;;;4.28;4.07;;;;;;;36.00;30.01;99647.97;4973367;28;20187;-73
2022/07/03 11:21:21;;;;;;;4.63;4.30;;;;;;;35.91;28.74;99658.44;4972340;28;20188;-75
2022/07/03 11:24:08;;;;;;;4.50;4.10;;;;;;;35.90;29.17;99651.31;4973056;28;20207;-74
2022/07/03 11:26:35;;;;;;;4.15;3.95;;;;;;;36.10;29.74;99661.28;4981905;28;20566;-75
2022/07/03 11:29:02;;;;;;;7.05;6.55;;;;;;;36.13;29.12;99650.28;4972473;28;20757;-74
2022/07/03 11:31:30;;;;;;;9.23;5.82;;;;;;;35.30;30.32;99651.75;4974256;28;20195;-79
2022/07/03 11:34:01;;;;;;;5.85;4.82;;;;;;;35.19;29.82;99650.66;4973442;28;20227;-74
2022/07/03 11:36:30;;;;;;;7.28;4.57;;;;;;;35.28;30.14;99637.50;4972974;28;20261;-73
2022/07/03 11:39:10;;;;;;;4.70;4.40;;;;;;;35.22;30.58;99633.34;4973220;28;20192;-73
2022/07/03 11:41:45;;;;;;;4.90;4.60;;;;;;;34.86;30.88;99644.63;4966032;28;20277;-75
2022/07/03 11:44:17;;;;;;;5.00;4.55;;;;;;;35.13;30.20;99632.72;4971866;28;20687;-74
2022/07/03 11:46:49;;;;;;;4.60;4.30;;;;;;;35.29;30.27;99639.09;4964733;28;20836;-73
2022/07/03 11:49:17;;;;;;;6.53;6.03;;;;;;;34.93;30.65;99642.03;4967477;28;20259;-70
2022/07/03 11:51:55;;;;;;;4.20;3.90;;;;;;;35.18;30.26;99626.91;4971321;28;20292;-75
2022/07/03 11:54:22;;;;;;;4.88;4.68;;;;;;;35.15;30.50;99625.66;4967728;28;20211;-76
2022/07/03 11:56:49;;;;;;;4.72;4.28;;;;;;;35.38;30.95;99617.59;4974758;28;20199;-76